Time;durP1;ratioP1;P1;durP2;ratioP2;P2;SDS_P1;SDS_P2;PMS_P1;PMS_P2;Temp;Humidity;BMP_temperature;BMP_pressure;BME280_temperature;BME280_humidity;BME280_pressure;Samples;Min_cycle;Max_cycle;Signal;HPM_P1;HPM_P2
2022/03/21 00:01:32;;;;;;;20.15;10.45;;;;;;;;;;5035029;28;20053;-66
2022/03/21 00:03:59;;;;;;;13.40;9.32;;;;;;;;;;5035257;28;20492;-66
2022/03/21 00:06:26;;;;;;;14.35;9.30;;;;;;;;;;5035418;28;20103;-65
2022/03/21 00:08:52;;;;;;;15.52;9.45;;;;;;;;;;5035129;28;20492;-65
2022/03/21 00:11:20;;;;;;;13.88;8.88;;;;;;;;;;5034833;28;20111;-65
2022/03/21 00:13:49;;;;;;;12.50;8.32;;;;;;;;;;5035145;28;20073;-65
2022/03/21 00:16:16;;;;;;;12.32;8.43;;;;;;;;;;5035273;28;20071;-65
2022/03/21 00:18:43;;;;;;;13.45;8.20;;;;;;;;;;5035195;28;20045;-65
2022/03/21 00:21:09;;;;;;;13.27;9.05;;;;;;;;;;5034707;28;20420;-65
2022/03/21 00:23:36;;;;;;;14.05;9.20;;;;;;;;;;5034813;28;20049;-65
2022/03/21 00:26:03;;;;;;;15.20;9.43;;;;;;;;;;5035086;28;20049;-66
2022/03/21 00:28:30;;;;;;;12.85;8.77;;;;;;;;;;5034984;28;20041;-65
2022/03/21 00:30:56;;;;;;;12.80;9.38;;;;;;;;;;5034495;28;20115;-66
2022/03/21 00:33:23;;;;;;;12.80;8.55;;;;;;;;;;5034906;28;20436;-66
2022/03/21 00:35:50;;;;;;;13.32;9.05;;;;;;;;;;5034704;28;20103;-66
2022/03/21 00:38:18;;;;;;;14.57;8.85;;;;;;;;;;5034601;28;20045;-65
2022/03/21 00:40:46;;;;;;;12.73;8.43;;;;;;;;;;5034314;28;20490;-66
2022/03/21 00:43:23;;;;;;;12.70;9.02;;;;;;;;;;5034733;28;20055;-66
2022/03/21 00:45:54;;;;;;;14.10;9.27;;;;;;;;;;5034495;28;20052;-66
2022/03/21 00:48:21;;;;;;;14.80;9.63;;;;;;;;;;5034481;28;20042;-66
2022/03/21 00:50:48;;;;;;;12.55;9.02;;;;;;;;;;5034047;28;20127;-65
2022/03/21 00:53:16;;;;;;;14.52;9.40;;;;;;;;;;5034518;28;20049;-66
2022/03/21 00:55:43;;;;;;;11.60;8.50;;;;;;;;;;5034591;28;20476;-65
2022/03/21 00:58:10;;;;;;;13.57;9.88;;;;;;;;;;5034180;28;20050;-65
2022/03/21 01:00:36;;;;;;;12.88;9.25;;;;;;;;;;5034011;28;20470;-65
2022/03/21 01:03:03;;;;;;;14.40;9.50;;;;;;;;;;5034712;28;20045;-65
2022/03/21 01:05:30;;;;;;;13.38;9.50;;;;;;;;;;5034345;28;20055;-66
2022/03/21 01:07:58;;;;;;;17.42;10.25;;;;;;;;;;5034018;28;20539;-65
2022/03/21 01:10:26;;;;;;;17.55;11.13;;;;;;;;;;5033995;28;20455;-65
2022/03/21 01:12:53;;;;;;;20.20;11.10;;;;;;;;;;5033944;28;20053;-65
2022/03/21 01:15:21;;;;;;;18.17;11.88;;;;;;;;;;5033977;28;20050;-65
2022/03/21 01:17:48;;;;;;;18.58;12.68;;;;;;;;;;5033975;28;20046;-66
2022/03/21 01:20:16;;;;;;;16.83;10.80;;;;;;;;;;5033907;28;20107;-66
2022/03/21 01:22:43;;;;;;;15.25;10.18;;;;;;;;;;5033879;28;20080;-65
2022/03/21 01:25:10;;;;;;;13.63;9.68;;;;;;;;;;5033790;28;20550;-65
2022/03/21 01:27:38;;;;;;;14.98;10.45;;;;;;;;;;5033775;28;20183;-66
2022/03/21 01:30:08;;;;;;;14.45;10.18;;;;;;;;;;5033420;28;20049;-66
2022/03/21 01:32:35;;;;;;;14.73;9.57;;;;;;;;;;5033553;28;20064;-66
2022/03/21 01:35:03;;;;;;;15.07;9.35;;;;;;;;;;5033835;28;20514;-65
2022/03/21 01:37:29;;;;;;;12.05;8.95;;;;;;;;;;5033636;28;20046;-66
2022/03/21 01:39:56;;;;;;;14.02;8.80;;;;;;;;;;5033225;28;20539;-64
2022/03/21 01:42:22;;;;;;;14.48;8.80;;;;;;;;;;5033439;28;20050;-64
2022/03/21 01:44:53;;;;;;;13.68;9.00;;;;;;;;;;5033342;28;20049;-66
2022/03/21 01:47:20;;;;;;;12.90;8.88;;;;;;;;;;5033251;28;20562;-66
2022/03/21 01:49:46;;;;;;;15.65;8.98;;;;;;;;;;5033314;28;20095;-64
2022/03/21 01:52:13;;;;;;;14.07;9.50;;;;;;;;;;5033304;28;20347;-64
2022/03/21 01:57:25;;;;;;;16.02;9.95;;;;;;;;;;5032096;28;20053;-64
2022/03/21 01:59:51;;;;;;;15.68;9.35;;;;;;;;;;5032840;28;20049;-64
2022/03/21 02:02:18;;;;;;;15.20;9.48;;;;;;;;;;5032001;28;20123;-64
2022/03/21 02:04:44;;;;;;;17.23;10.38;;;;;;;;;;5033254;28;20049;-64
2022/03/21 02:07:11;;;;;;;16.15;9.70;;;;;;;;;;5032785;28;20045;-64
2022/03/21 02:09:38;;;;;;;16.23;10.13;;;;;;;;;;5030678;28;20080;-64
2022/03/21 02:12:05;;;;;;;15.82;9.43;;;;;;;;;;5015202;28;20050;-64
2022/03/21 02:14:35;;;;;;;14.60;10.18;;;;;;;;;;5031974;28;20394;-64
2022/03/21 02:17:02;;;;;;;14.07;9.32;;;;;;;;;;5015821;28;20053;-64
2022/03/21 02:19:31;;;;;;;14.88;10.35;;;;;;;;;;5032512;28;20049;-64
2022/03/21 02:21:57;;;;;;;15.55;9.30;;;;;;;;;;5032622;28;20080;-64
2022/03/21 02:24:36;;;;;;;15.02;10.05;;;;;;;;;;5032683;28;20053;-64
2022/03/21 02:27:03;;;;;;;16.42;9.52;;;;;;;;;;5032769;28;20049;-64
2022/03/21 02:29:30;;;;;;;13.45;9.30;;;;;;;;;;5014825;28;20046;-64
2022/03/21 02:31:56;;;;;;;13.55;9.45;;;;;;;;;;5031309;28;20049;-64
2022/03/21 02:34:24;;;;;;;13.80;9.23;;;;;;;;;;5032546;28;20179;-64
2022/03/21 02:36:56;;;;;;;15.45;9.68;;;;;;;;;;5031271;28;20416;-64
2022/03/21 02:39:22;;;;;;;14.70;8.60;;;;;;;;;;5031038;28;20045;-64
2022/03/21 02:41:49;;;;;;;17.67;10.55;;;;;;;;;;5031309;28;20107;-64
2022/03/21 02:44:16;;;;;;;16.25;9.88;;;;;;;;;;5032296;28;20463;-64
2022/03/21 02:46:42;;;;;;;17.88;10.25;;;;;;;;;;5032323;28;20101;-63
2022/03/21 02:49:09;;;;;;;15.50;9.20;;;;;;;;;;5032135;28;20099;-64
2022/03/21 02:51:39;;;;;;;14.48;8.98;;;;;;;;;;5031780;28;20462;-64
2022/03/21 02:54:06;;;;;;;13.77;9.45;;;;;;;;;;5031279;28;20053;-63
2022/03/21 02:56:33;;;;;;;14.07;9.65;;;;;;;;;;5032084;28;20168;-64
2022/03/21 02:59:00;;;;;;;13.30;9.25;;;;;;;;;;5032226;28;20041;-64
2022/03/21 03:01:26;;;;;;;13.38;8.85;;;;;;;;;;5031836;28;20049;-63
2022/03/21 03:03:53;;;;;;;13.70;9.50;;;;;;;;;;5032084;28;20107;-64
2022/03/21 03:06:20;;;;;;;14.27;9.88;;;;;;;;;;5031947;28;20475;-64
2022/03/21 03:08:46;;;;;;;14.57;10.20;;;;;;;;;;5032081;28;20046;-63
2022/03/21 03:11:13;;;;;;;16.10;9.02;;;;;;;;;;5031882;28;20054;-63
2022/03/21 03:13:39;;;;;;;13.98;10.10;;;;;;;;;;5031954;28;20466;-63
2022/03/21 03:16:06;;;;;;;18.00;10.15;;;;;;;;;;5031986;28;20455;-64
2022/03/21 03:18:33;;;;;;;17.13;10.70;;;;;;;;;;5031799;28;20097;-64
2022/03/21 03:21:00;;;;;;;15.70;10.95;;;;;;;;;;5031377;28;20053;-64
2022/03/21 03:23:28;;;;;;;17.88;10.70;;;;;;;;;;5030691;28;20045;-64
2022/03/21 03:25:59;;;;;;;17.00;10.98;;;;;;;;;;5031970;28;20103;-64
2022/03/21 03:28:27;;;;;;;15.43;10.95;;;;;;;;;;5030616;28;20101;-64
2022/03/21 03:31:14;;;;;;;21.80;11.98;;;;;;;;;;5031298;28;20570;-63
2022/03/21 03:33:41;;;;;;;16.48;10.52;;;;;;;;;;5031855;28;20053;-64
2022/03/21 03:36:08;;;;;;;14.00;9.93;;;;;;;;;;5031873;28;20053;-63
2022/03/21 03:38:34;;;;;;;16.52;10.57;;;;;;;;;;5031602;28;20567;-63
2022/03/21 03:41:01;;;;;;;19.38;10.75;;;;;;;;;;5030211;28;20496;-64
2022/03/21 03:43:29;;;;;;;15.88;9.70;;;;;;;;;;5031539;28;20519;-63
2022/03/21 03:45:57;;;;;;;14.30;10.15;;;;;;;;;;5031579;28;20050;-64
2022/03/21 03:48:25;;;;;;;16.73;11.50;;;;;;;;;;5031612;28;20617;-63
2022/03/21 03:50:51;;;;;;;16.08;11.07;;;;;;;;;;5031479;28;20115;-64
2022/03/21 03:53:18;;;;;;;13.32;9.93;;;;;;;;;;5031349;28;20095;-63
2022/03/21 03:55:45;;;;;;;18.30;10.10;;;;;;;;;;5031447;28;20049;-64
2022/03/21 03:58:11;;;;;;;17.40;10.27;;;;;;;;;;5031290;28;20041;-64
2022/03/21 04:00:38;;;;;;;15.68;10.02;;;;;;;;;;5031187;28;20054;-64
2022/03/21 04:05:52;;;;;;;14.10;10.20;;;;;;;;;;5031574;28;20080;-64
2022/03/21 04:08:19;;;;;;;14.35;10.60;;;;;;;;;;5031208;28;20046;-64
2022/03/21 04:10:45;;;;;;;16.23;10.68;;;;;;;;;;5031003;28;20058;-64
2022/03/21 04:13:12;;;;;;;14.75;9.57;;;;;;;;;;5031509;28;20061;-64
2022/03/21 04:15:38;;;;;;;13.18;9.68;;;;;;;;;;5031459;28;20076;-64
2022/03/21 04:18:05;;;;;;;15.13;10.40;;;;;;;;;;5031411;28;20045;-64
2022/03/21 04:20:32;;;;;;;14.48;9.90;;;;;;;;;;5031149;28;20099;-64
2022/03/21 04:23:00;;;;;;;16.33;10.02;;;;;;;;;;5031222;28;20103;-64
2022/03/21 04:25:27;;;;;;;15.43;10.65;;;;;;;;;;5031137;28;20045;-64
2022/03/21 04:27:54;;;;;;;16.67;10.50;;;;;;;;;;5031302;28;20119;-64
2022/03/21 04:30:21;;;;;;;16.83;10.40;;;;;;;;;;5030969;28;20050;-64
2022/03/21 04:32:48;;;;;;;12.30;9.63;;;;;;;;;;5031780;28;20512;-64
2022/03/21 04:35:15;;;;;;;14.63;10.18;;;;;;;;;;5034875;28;20129;-64
2022/03/21 04:37:41;;;;;;;14.32;10.35;;;;;;;;;;5034634;28;20124;-64
2022/03/21 04:40:09;;;;;;;17.23;10.23;;;;;;;;;;5034375;28;20041;-63
2022/03/21 04:42:36;;;;;;;17.55;10.50;;;;;;;;;;5034711;28;20095;-63
2022/03/21 04:45:04;;;;;;;17.67;11.02;;;;;;;;;;5034655;28;20076;-64
2022/03/21 04:47:31;;;;;;;17.00;10.65;;;;;;;;;;5038445;28;20049;-64
2022/03/21 04:49:58;;;;;;;16.08;10.45;;;;;;;;;;5033293;28;20045;-63
2022/03/21 04:52:24;;;;;;;13.88;9.85;;;;;;;;;;5034335;28;20496;-63
2022/03/21 04:54:51;;;;;;;16.00;10.48;;;;;;;;;;5034712;28;20053;-63
2022/03/21 04:57:23;;;;;;;13.70;9.27;;;;;;;;;;5034630;28;20099;-63
2022/03/21 04:59:49;;;;;;;14.95;10.00;;;;;;;;;;5034004;28;20045;-64
2022/03/21 05:02:16;;;;;;;12.65;9.35;;;;;;;;;;5034349;28;20046;-64
2022/03/21 05:04:43;;;;;;;14.65;9.65;;;;;;;;;;5034343;28;20049;-64
2022/03/21 05:07:14;;;;;;;16.05;9.60;;;;;;;;;;5034254;28;20057;-64
2022/03/21 05:09:41;;;;;;;11.80;9.00;;;;;;;;;;5034124;28;20096;-64
2022/03/21 05:12:09;;;;;;;15.90;9.70;;;;;;;;;;5034323;28;20049;-64
2022/03/21 05:14:36;;;;;;;15.55;10.35;;;;;;;;;;5034058;28;20080;-64
2022/03/21 05:17:03;;;;;;;15.32;10.40;;;;;;;;;;5034196;28;20050;-64
2022/03/21 05:19:30;;;;;;;14.98;9.85;;;;;;;;;;5032579;28;20393;-64
2022/03/21 05:21:56;;;;;;;13.80;9.82;;;;;;;;;;5034048;28;20054;-63
2022/03/21 05:32:38;;;;;;;12.80;9.35;;;;;;;;;;5034231;28;20496;-63
2022/03/21 05:37:50;;;;;;;14.43;10.13;;;;;;;;;;5033954;28;20049;-63
2022/03/21 05:40:32;;;;;;;16.92;9.82;;;;;;;;;;5033264;28;20049;-63
2022/03/21 05:42:58;;;;;;;13.32;9.57;;;;;;;;;;5033995;28;20049;-62
2022/03/21 05:45:25;;;;;;;15.40;10.02;;;;;;;;;;5033638;28;20045;-63
2022/03/21 05:50:37;;;;;;;15.65;9.98;;;;;;;;;;5033780;28;20053;-63
2022/03/21 05:53:05;;;;;;;15.23;9.98;;;;;;;;;;5033570;28;20061;-63
2022/03/21 05:55:32;;;;;;;16.40;10.00;;;;;;;;;;5033393;28;20099;-61
2022/03/21 05:57:58;;;;;;;15.10;9.98;;;;;;;;;;5033487;28;20076;-63
2022/03/21 06:00:25;;;;;;;15.40;11.35;;;;;;;;;;5032965;28;20050;-63
2022/03/21 06:02:53;;;;;;;13.82;10.15;;;;;;;;;;5033279;28;20053;-64
2022/03/21 06:05:23;;;;;;;16.17;10.35;;;;;;;;;;5033056;28;20056;-64
2022/03/21 06:07:50;;;;;;;12.02;9.00;;;;;;;;;;5033270;28;20110;-64
2022/03/21 06:10:17;;;;;;;13.98;9.18;;;;;;;;;;5032722;28;20049;-63
2022/03/21 06:12:44;;;;;;;15.20;9.70;;;;;;;;;;5033344;28;20461;-63
2022/03/21 06:15:11;;;;;;;18.83;9.63;;;;;;;;;;5033068;28;20054;-63
2022/03/21 06:17:42;;;;;;;14.20;9.68;;;;;;;;;;5032875;28;20046;-63
2022/03/21 06:20:19;;;;;;;13.00;8.80;;;;;;;;;;5032769;28;20123;-63
2022/03/21 06:22:45;;;;;;;14.77;9.63;;;;;;;;;;5031236;28;20103;-63
2022/03/21 06:25:12;;;;;;;15.52;9.52;;;;;;;;;;5032874;28;20123;-63
2022/03/21 06:27:39;;;;;;;19.40;11.13;;;;;;;;;;5033257;28;20076;-63
2022/03/21 06:30:08;;;;;;;15.18;9.80;;;;;;;;;;5032108;28;20099;-63
2022/03/21 06:32:35;;;;;;;17.38;9.52;;;;;;;;;;5032507;28;20061;-63
2022/03/21 06:35:03;;;;;;;17.50;9.75;;;;;;;;;;5032734;28;20075;-63
2022/03/21 06:37:33;;;;;;;14.05;9.35;;;;;;;;;;5032514;28;20137;-63
2022/03/21 06:40:00;;;;;;;18.80;10.05;;;;;;;;;;5032185;28;20492;-63
2022/03/21 06:42:27;;;;;;;13.57;9.40;;;;;;;;;;5032369;28;20566;-63
2022/03/21 06:44:53;;;;;;;14.55;10.02;;;;;;;;;;5032214;28;20096;-63
2022/03/21 06:47:20;;;;;;;14.95;9.70;;;;;;;;;;5032697;28;20053;-63
2022/03/21 06:49:47;;;;;;;15.23;9.48;;;;;;;;;;5032464;28;20088;-63
2022/03/21 06:52:16;;;;;;;14.98;9.75;;;;;;;;;;5032462;28;20103;-63
2022/03/21 06:54:44;;;;;;;14.73;9.43;;;;;;;;;;5032444;28;20064;-63
2022/03/21 06:57:11;;;;;;;15.30;8.65;;;;;;;;;;5031984;28;20061;-63
2022/03/21 06:59:38;;;;;;;13.98;9.27;;;;;;;;;;5031810;28;20107;-63
2022/03/21 07:02:05;;;;;;;14.57;9.55;;;;;;;;;;5032285;28;20107;-63
2022/03/21 07:04:32;;;;;;;15.35;9.32;;;;;;;;;;5032103;28;20060;-63
2022/03/21 07:06:58;;;;;;;20.08;10.55;;;;;;;;;;5032067;28;20049;-63
2022/03/21 07:09:25;;;;;;;15.05;9.93;;;;;;;;;;5031709;28;20491;-63
2022/03/21 07:11:52;;;;;;;15.80;8.80;;;;;;;;;;5032096;28;20049;-63
2022/03/21 07:14:19;;;;;;;16.85;9.52;;;;;;;;;;5031802;28;20057;-63
2022/03/21 07:16:47;;;;;;;18.00;9.88;;;;;;;;;;5032135;28;20111;-63
2022/03/21 07:19:13;;;;;;;16.60;9.88;;;;;;;;;;5032089;28;20168;-63
2022/03/21 07:21:40;;;;;;;16.65;10.20;;;;;;;;;;5031598;28;20254;-63
2022/03/21 07:24:07;;;;;;;13.55;8.57;;;;;;;;;;5031383;28;20425;-63
2022/03/21 07:26:35;;;;;;;16.95;10.02;;;;;;;;;;5031776;28;20462;-63
2022/03/21 07:29:02;;;;;;;13.90;8.90;;;;;;;;;;5030544;28;20643;-63
2022/03/21 07:31:32;;;;;;;13.00;9.18;;;;;;;;;;5031387;28;20085;-63
2022/03/21 07:33:59;;;;;;;12.70;8.25;;;;;;;;;;5032256;28;20424;-63
2022/03/21 07:36:25;;;;;;;18.40;10.25;;;;;;;;;;5031779;28;20053;-63
2022/03/21 07:38:53;;;;;;;15.35;9.30;;;;;;;;;;5031852;28;20081;-63
2022/03/21 07:41:23;;;;;;;13.57;8.98;;;;;;;;;;5031302;28;20486;-63
2022/03/21 07:43:50;;;;;;;15.70;8.98;;;;;;;;;;5031694;28;20493;-63
2022/03/21 07:49:02;;;;;;;14.57;9.05;;;;;;;;;;5031610;28;20560;-63
2022/03/21 07:51:28;;;;;;;14.75;9.07;;;;;;;;;;5031304;28;20053;-63
2022/03/21 07:53:55;;;;;;;16.60;9.68;;;;;;;;;;5031597;28;20088;-63
2022/03/21 07:56:23;;;;;;;14.90;9.10;;;;;;;;;;5030304;28;20489;-63
2022/03/21 07:58:49;;;;;;;12.32;8.75;;;;;;;;;;5031983;28;20052;-63
2022/03/21 08:01:16;;;;;;;16.80;9.85;;;;;;;;;;5031133;28;20504;-64
2022/03/21 08:03:43;;;;;;;13.52;9.65;;;;;;;;;;5031590;28;20115;-64
2022/03/21 08:06:10;;;;;;;16.25;10.02;;;;;;;;;;5031367;28;20053;-63
2022/03/21 08:08:38;;;;;;;15.50;9.45;;;;;;;;;;5033987;28;20107;-63
2022/03/21 08:11:05;;;;;;;14.25;9.23;;;;;;;;;;5035308;28;20053;-63
2022/03/21 08:13:32;;;;;;;12.27;8.55;;;;;;;;;;5035245;28;20049;-63
2022/03/21 08:15:59;;;;;;;14.05;9.23;;;;;;;;;;5035209;28;20084;-63
2022/03/21 08:18:31;;;;;;;12.55;8.15;;;;;;;;;;5035222;28;20500;-63
2022/03/21 08:20:58;;;;;;;12.48;9.13;;;;;;;;;;5034705;28;20705;-63
2022/03/21 08:23:24;;;;;;;14.93;9.13;;;;;;;;;;5035324;28;20053;-63
2022/03/21 08:25:52;;;;;;;13.77;9.23;;;;;;;;;;5035088;28;20053;-63
2022/03/21 08:28:19;;;;;;;14.50;9.30;;;;;;;;;;5035124;28;20057;-63
2022/03/21 08:30:45;;;;;;;15.30;9.27;;;;;;;;;;5034537;28;20107;-63
2022/03/21 08:33:12;;;;;;;12.70;8.93;;;;;;;;;;5034771;28;20046;-63
2022/03/21 08:35:39;;;;;;;12.68;8.93;;;;;;;;;;5034894;28;20053;-63
2022/03/21 08:38:07;;;;;;;13.05;9.45;;;;;;;;;;5034777;28;20056;-63
2022/03/21 08:40:36;;;;;;;15.82;10.27;;;;;;;;;;5034404;28;20049;-63
2022/03/21 08:43:03;;;;;;;16.35;9.93;;;;;;;;;;5034851;28;20428;-63
2022/03/21 08:45:30;;;;;;;13.60;10.20;;;;;;;;;;5034673;28;20144;-64
2022/03/21 08:47:56;;;;;;;16.40;9.82;;;;;;;;;;5034488;28;20496;-64
2022/03/21 08:50:26;;;;;;;16.08;9.93;;;;;;;;;;5034504;28;20151;-63
2022/03/21 08:52:56;;;;;;;14.18;9.68;;;;;;;;;;5034697;28;20420;-63
2022/03/21 08:55:23;;;;;;;13.93;10.80;;;;;;;;;;5034379;28;20574;-63
2022/03/21 08:57:49;;;;;;;13.10;9.23;;;;;;;;;;5034400;28;20049;-63
2022/03/21 09:00:16;;;;;;;16.20;10.43;;;;;;;;;;5033987;28;20095;-63
2022/03/21 09:02:46;;;;;;;16.02;9.55;;;;;;;;;;5033298;28;20046;-63
2022/03/21 09:05:13;;;;;;;13.38;9.65;;;;;;;;;;5034445;28;20076;-63
2022/03/21 09:07:40;;;;;;;14.68;9.50;;;;;;;;;;5034253;28;20049;-63
2022/03/21 09:10:10;;;;;;;14.18;10.38;;;;;;;;;;5033966;28;20467;-64
2022/03/21 09:12:37;;;;;;;16.98;10.25;;;;;;;;;;5034146;28;20107;-63
2022/03/21 09:15:04;;;;;;;14.82;10.43;;;;;;;;;;5034027;28;20107;-63
2022/03/21 09:17:31;;;;;;;14.98;9.88;;;;;;;;;;5034096;28;20100;-63
2022/03/21 09:19:58;;;;;;;14.55;10.18;;;;;;;;;;5033452;28;20053;-63
2022/03/21 09:22:24;;;;;;;18.90;10.95;;;;;;;;;;5033955;28;20073;-63
2022/03/21 09:24:52;;;;;;;15.07;10.30;;;;;;;;;;5033932;28;20049;-63
2022/03/21 09:27:20;;;;;;;16.67;10.20;;;;;;;;;;5033751;28;20058;-64
2022/03/21 09:29:47;;;;;;;17.67;10.60;;;;;;;;;;5033575;28;20061;-63
2022/03/21 09:32:15;;;;;;;14.38;10.38;;;;;;;;;;5033639;28;20111;-63
2022/03/21 09:34:41;;;;;;;15.80;10.20;;;;;;;;;;5033947;28;20140;-64
2022/03/21 09:37:08;;;;;;;15.00;10.25;;;;;;;;;;5033950;28;20053;-63
2022/03/21 09:39:35;;;;;;;14.82;10.80;;;;;;;;;;5033484;28;20515;-63
2022/03/21 09:42:03;;;;;;;16.10;11.07;;;;;;;;;;5033419;28;20053;-64
2022/03/21 09:44:29;;;;;;;13.88;10.32;;;;;;;;;;5033629;28;20570;-63
2022/03/21 09:46:56;;;;;;;18.45;11.13;;;;;;;;;;5033854;28;20099;-65
2022/03/21 09:49:26;;;;;;;15.05;11.10;;;;;;;;;;5033377;28;20111;-64
2022/03/21 09:51:52;;;;;;;14.80;10.30;;;;;;;;;;5032198;28;20045;-65
2022/03/21 09:54:19;;;;;;;14.95;10.65;;;;;;;;;;5015866;28;20501;-64
2022/03/21 09:56:45;;;;;;;16.55;11.15;;;;;;;;;;5033345;28;20057;-63
2022/03/21 09:59:12;;;;;;;14.77;10.90;;;;;;;;;;5032540;28;20550;-64
2022/03/21 10:01:41;;;;;;;15.88;11.30;;;;;;;;;;5033075;28;20050;-63
2022/03/21 10:04:08;;;;;;;14.75;10.80;;;;;;;;;;5033279;28;20049;-63
2022/03/21 10:06:37;;;;;;;18.33;12.65;;;;;;;;;;5033143;28;20115;-63
2022/03/21 10:09:10;;;;;;;20.20;11.85;;;;;;;;;;5032987;28;20049;-64
2022/03/21 10:11:37;;;;;;;;;;;;;;;;;;5033488;28;20103;-64
2022/03/21 10:14:26;;;;;;;16.17;11.35;;;;;;;;;;5033220;28;19924;-64
2022/03/21 10:16:58;;;;;;;16.85;11.43;;;;;;;;;;5033285;28;20111;-64
2022/03/21 10:19:26;;;;;;;19.83;12.35;;;;;;;;;;5031998;28;20057;-64
2022/03/21 10:22:07;;;;;;;16.55;11.43;;;;;;;;;;5032308;28;20128;-64
2022/03/21 10:24:41;;;;;;;19.25;12.98;;;;;;;;;;5012932;28;20050;-64
2022/03/21 10:27:29;;;;;;;19.98;12.80;;;;;;;;;;5012809;28;20489;-67
2022/03/21 10:30:01;;;;;;;14.15;11.02;;;;;;;;;;5012240;28;20089;-64
2022/03/21 10:32:44;;;;;;;19.48;12.50;;;;;;;;;;5013550;28;20060;-65
2022/03/21 10:35:22;;;;;;;17.05;12.38;;;;;;;;;;5021019;28;20046;-66
2022/03/21 10:38:04;;;;;;;21.95;12.52;;;;;;;;;;5013638;28;20529;-69
2022/03/21 10:40:44;;;;;;;17.13;12.25;;;;;;;;;;5014193;28;20100;-68
2022/03/21 10:43:14;;;;;;;19.60;12.40;;;;;;;;;;5025572;28;20507;-68
2022/03/21 10:45:43;;;;;;;16.73;11.25;;;;;;;;;;5022295;28;20046;-68
2022/03/21 10:48:18;;;;;;;16.90;11.90;;;;;;;;;;5019690;28;20129;-68
2022/03/21 10:50:47;;;;;;;17.50;11.77;;;;;;;;;;5016182;28;20049;-69
2022/03/21 10:53:22;;;;;;;18.27;11.63;;;;;;;;;;5021010;28;20046;-73
2022/03/21 10:55:58;;;;;;;19.05;12.27;;;;;;;;;;5023379;28;20136;-70
2022/03/21 10:58:39;;;;;;;20.90;12.48;;;;;;;;;;5018345;28;20079;-71
2022/03/21 11:01:19;;;;;;;16.10;13.00;;;;;;;;;;5001645;28;20533;-73
2022/03/21 11:03:51;;;;;;;16.88;12.10;;;;;;;;;;5019417;28;20057;-70
2022/03/21 11:06:19;;;;;;;18.08;12.48;;;;;;;;;;5020552;28;20049;-71
2022/03/21 11:08:50;;;;;;;16.75;12.45;;;;;;;;;;5018746;28;20053;-75
2022/03/21 11:11:17;;;;;;;16.60;12.75;;;;;;;;;;5003594;28;20045;-74
2022/03/21 11:17:37;;;;;;;17.10;12.35;;;;;;;;;;5011746;28;20136;-72
2022/03/21 11:20:08;;;;;;;16.02;12.32;;;;;;;;;;5022594;28;20606;-73
2022/03/21 11:22:36;;;;;;;15.45;12.00;;;;;;;;;;5019852;28;20467;-73
2022/03/21 11:25:16;;;;;;;15.48;12.13;;;;;;;;;;5020581;28;20057;-71
2022/03/21 11:28:02;;;;;;;14.93;11.30;;;;;;;;;;5024407;28;20053;-73
2022/03/21 11:30:57;;;;;;;16.60;12.57;;;;;;;;;;5017104;28;20763;-70
2022/03/21 11:33:50;;;;;;;16.70;12.77;;;;;;;;;;5052524;22;20057;-72
2022/03/21 11:36:19;;;;;;;20.33;12.50;;;;;;;;;;5038002;28;20056;-73
2022/03/21 11:38:48;;;;;;;17.77;12.73;;;;;;;;;;5038921;28;20058;-71
2022/03/21 11:41:20;;;;;;;17.13;13.18;;;;;;;;;;5038230;28;20278;-73
2022/03/21 11:43:47;;;;;;;17.17;12.63;;;;;;;;;;5022270;28;20108;-69
2022/03/21 11:46:25;;;;;;;18.55;12.90;;;;;;;;;;5021303;28;20380;-65
2022/03/21 11:48:56;;;;;;;15.60;11.82;;;;;;;;;;5021717;28;20106;-67
2022/03/21 11:51:25;;;;;;;15.88;11.88;;;;;;;;;;5020814;28;20458;-69
2022/03/21 11:53:53;;;;;;;15.15;12.10;;;;;;;;;;5021256;28;20049;-68
2022/03/21 11:57:10;;;;;;;17.70;12.45;;;;;;;;;;5024195;28;20042;-68
2022/03/21 11:59:38;;;;;;;17.95;12.07;;;;;;;;;;5024639;28;20446;-67
2022/03/21 12:02:17;;;;;;;17.65;12.40;;;;;;;;;;5023929;28;20050;-68
2022/03/21 12:05:09;;;;;;;17.85;12.68;;;;;;;;;;5026396;28;20060;-67
2022/03/21 12:07:41;;;;;;;21.98;12.13;;;;;;;;;;5023563;28;20057;-69
2022/03/21 12:10:08;;;;;;;17.67;11.85;;;;;;;;;;5023291;28;20054;-70
2022/03/21 12:12:38;;;;;;;19.13;11.95;;;;;;;;;;5024391;28;20119;-71
2022/03/21 12:15:31;;;;;;;16.80;11.95;;;;;;;;;;5029561;28;20507;-70
2022/03/21 12:17:58;;;;;;;18.90;11.25;;;;;;;;;;5025655;28;20054;-69
2022/03/21 12:20:25;;;;;;;16.50;11.52;;;;;;;;;;5026003;28;20104;-71
2022/03/21 12:23:18;;;;;;;;;;;;;;;;;;5029191;28;20128;-68
2022/03/21 12:25:46;;;;;;;17.33;11.68;;;;;;;;;;5027507;28;19921;-71
2022/03/21 12:28:18;;;;;;;16.45;11.20;;;;;;;;;;5026441;28;20508;-71
2022/03/21 12:34:18;;;;;;;15.60;11.63;;;;;;;;;;5866209;22;20277;-65
2022/03/21 12:36:44;;;;;;;16.05;10.15;;;;;;;;;;5051084;28;20099;-66
2022/03/21 12:39:19;;;;;;;18.02;11.25;;;;;;;;;;5041273;28;20110;-65
2022/03/21 12:41:45;;;;;;;12.93;10.68;;;;;;;;;;5042895;28;20518;-63
2022/03/21 12:44:13;;;;;;;17.00;11.23;;;;;;;;;;5027706;28;20079;-65
2022/03/21 12:46:39;;;;;;;16.58;11.50;;;;;;;;;;5039166;28;20049;-65
2022/03/21 12:49:06;;;;;;;15.20;11.95;;;;;;;;;;5035077;28;20094;-63
2022/03/21 12:51:36;;;;;;;14.82;11.35;;;;;;;;;;5072287;22;20127;-66
2022/03/21 12:54:21;;;;;;;13.60;10.57;;;;;;;;;;5057697;28;20053;-64
2022/03/21 12:56:48;;;;;;;17.63;11.45;;;;;;;;;;5061115;28;20053;-65
2022/03/21 12:59:14;;;;;;;13.20;10.82;;;;;;;;;;5058928;28;20049;-64
2022/03/21 13:01:42;;;;;;;14.45;10.60;;;;;;;;;;5026415;28;20053;-65
2022/03/21 13:12:35;;;;;;;14.73;10.45;;;;;;;;;;5048224;28;20447;-67
2022/03/21 13:15:10;;;;;;;13.18;10.75;;;;;;;;;;5062467;28;20098;-66
2022/03/21 13:17:49;;;;;;;14.15;11.23;;;;;;;;;;5055067;28;20458;-66
2022/03/21 13:20:23;;;;;;;13.80;11.60;;;;;;;;;;5060102;28;20127;-66
2022/03/21 13:22:50;;;;;;;16.05;11.40;;;;;;;;;;5060486;28;20077;-65
2022/03/21 13:25:27;;;;;;;16.20;11.55;;;;;;;;;;5024620;28;20045;-66
2022/03/21 13:28:20;;;;;;;17.60;11.38;;;;;;;;;;5059779;28;20102;-66
2022/03/21 13:30:52;;;;;;;15.20;11.10;;;;;;;;;;5059654;28;20331;-67
2022/03/21 13:33:22;;;;;;;13.73;11.25;;;;;;;;;;5062219;28;20055;-66
2022/03/21 13:36:02;;;;;;;14.68;10.73;;;;;;;;;;5059471;28;20053;-66
2022/03/21 13:38:31;;;;;;;12.98;10.15;;;;;;;;;;5059473;28;20050;-66
2022/03/21 13:40:57;;;;;;;13.95;10.63;;;;;;;;;;5058366;28;20075;-66
2022/03/21 13:43:29;;;;;;;11.82;9.57;;;;;;;;;;5061744;28;20056;-65
2022/03/21 13:45:57;;;;;;;13.10;10.27;;;;;;;;;;5059376;28;20045;-66
2022/03/21 13:48:40;;;;;;;14.88;10.30;;;;;;;;;;5058162;28;20056;-65
2022/03/21 13:51:22;;;;;;;14.05;10.23;;;;;;;;;;5061402;28;20066;-66
2022/03/21 13:53:51;;;;;;;13.55;9.43;;;;;;;;;;5062565;28;20056;-66
2022/03/21 13:56:28;;;;;;;14.23;10.27;;;;;;;;;;5054399;28;20049;-66
2022/03/21 13:59:11;;;;;;;14.57;10.43;;;;;;;;;;5059251;28;20056;-66
2022/03/21 14:01:40;;;;;;;13.18;9.90;;;;;;;;;;5061569;28;20099;-66
2022/03/21 14:04:25;;;;;;;15.77;9.90;;;;;;;;;;5059064;28;20503;-67
2022/03/21 14:07:02;;;;;;;14.80;9.63;;;;;;;;;;5059981;28;20045;-66
2022/03/21 14:09:29;;;;;;;12.30;10.15;;;;;;;;;;5042329;28;20045;-65
2022/03/21 14:12:12;;;;;;;15.02;9.63;;;;;;;;;;5057559;28;20041;-66
2022/03/21 14:14:39;;;;;;;15.60;9.48;;;;;;;;;;5054019;28;20052;-66
2022/03/21 14:17:06;;;;;;;15.52;9.75;;;;;;;;;;5061827;28;20040;-67
2022/03/21 14:19:36;;;;;;;12.82;10.30;;;;;;;;;;5057139;28;20040;-66
2022/03/21 14:22:03;;;;;;;14.85;9.88;;;;;;;;;;5058649;28;20040;-67
2022/03/21 14:24:30;;;;;;;15.18;9.57;;;;;;;;;;5057549;28;20095;-66
2022/03/21 14:26:56;;;;;;;15.07;10.18;;;;;;;;;;5059205;28;20048;-67
2022/03/21 14:29:23;;;;;;;14.18;10.20;;;;;;;;;;5057847;28;20079;-66
2022/03/21 14:31:52;;;;;;;16.83;10.27;;;;;;;;;;5060633;28;20041;-68
2022/03/21 14:34:19;;;;;;;11.48;9.52;;;;;;;;;;5058691;28;20140;-67
2022/03/21 14:36:47;;;;;;;15.88;9.52;;;;;;;;;;5058436;28;20103;-66
2022/03/21 14:39:15;;;;;;;15.38;9.73;;;;;;;;;;5059359;28;20044;-66
2022/03/21 14:41:45;;;;;;;16.73;11.80;;;;;;;;;;5056245;28;20182;-66
2022/03/21 14:44:13;;;;;;;15.38;10.13;;;;;;;;;;5055494;28;20115;-66
2022/03/21 14:46:40;;;;;;;14.88;9.15;;;;;;;;;;5058289;28;20055;-68
2022/03/21 14:49:06;;;;;;;17.35;9.90;;;;;;;;;;5060947;28;20094;-67
2022/03/21 14:51:34;;;;;;;12.57;9.40;;;;;;;;;;5056829;28;20099;-66
2022/03/21 14:54:01;;;;;;;15.95;10.02;;;;;;;;;;5054587;28;20048;-68
2022/03/21 14:56:28;;;;;;;10.38;8.60;;;;;;;;;;5056622;28;20056;-72
2022/03/21 14:58:56;;;;;;;12.77;8.57;;;;;;;;;;5060979;28;20049;-68
2022/03/21 15:01:23;;;;;;;17.45;10.20;;;;;;;;;;5057048;28;20487;-69
2022/03/21 15:03:50;;;;;;;15.70;9.32;;;;;;;;;;5057413;28;20771;-70
2022/03/21 15:06:17;;;;;;;18.67;11.05;;;;;;;;;;5057585;28;20056;-71
2022/03/21 15:08:44;;;;;;;17.70;9.40;;;;;;;;;;5059793;28;20055;-71
2022/03/21 15:11:13;;;;;;;14.25;8.45;;;;;;;;;;5058707;28;20427;-70
2022/03/21 15:13:40;;;;;;;14.02;9.13;;;;;;;;;;5053633;28;20499;-70